Time;durP1;ratioP1;P1;durP2;ratioP2;P2;SDS_P1;SDS_P2;PMS_P1;PMS_P2;Temp;Humidity;BMP_temperature;BMP_pressure;BME280_temperature;BME280_humidity;BME280_pressure;Samples;Min_cycle;Max_cycle;Signal;HPM_P1;HPM_P2
2022/12/22 03:25:57;;;;;;;12.40;4.63;;;;;;;7.08;100.00;95747.47;5056731;28;20746;-70
2022/12/22 03:28:26;;;;;;;10.50;4.53;;;;;;;7.17;100.00;95743.84;5057058;28;20637;-70
2022/12/22 03:30:55;;;;;;;9.53;4.13;;;;;;;7.26;100.00;95755.94;5054893;28;21231;-70
2022/12/22 03:33:23;;;;;;;10.43;5.00;;;;;;;7.29;100.00;95751.97;5056211;28;20720;-70
2022/12/22 03:35:50;;;;;;;10.20;4.80;;;;;;;7.31;100.00;95742.13;5056199;28;20568;-70
2022/12/22 03:38:16;;;;;;;11.73;4.63;;;;;;;7.29;100.00;95754.59;5056707;28;20220;-70
2022/12/22 03:40:43;;;;;;;9.77;4.00;;;;;;;7.37;100.00;95751.94;5057359;28;20216;-70
2022/12/22 03:48:40;;;;;;;17.27;5.27;;;;;;;7.51;100.00;95750.41;5059973;28;20273;-71
2022/12/22 03:51:07;;;;;;;11.17;5.00;;;;;;;7.39;100.00;95736.06;5060643;28;20975;-71
2022/12/22 03:53:34;;;;;;;12.63;5.43;;;;;;;7.30;100.00;95729.22;5059104;28;20200;-71
2022/12/22 03:56:00;;;;;;;14.07;5.90;;;;;;;7.36;100.00;95725.91;5059623;28;20208;-71
2022/12/22 03:58:27;;;;;;;12.57;5.80;;;;;;;7.39;100.00;95721.13;5059545;28;20228;-72
2022/12/22 04:01:03;;;;;;;15.73;6.27;;;;;;;7.45;100.00;95730.94;5056469;28;20220;-72
2022/12/22 04:03:30;;;;;;;11.83;4.73;;;;;;;7.65;100.00;95721.69;5056548;28;20215;-72
2022/12/22 04:05:57;;;;;;;17.00;7.10;;;;;;;7.75;100.00;95724.09;5056123;28;20581;-72
2022/12/22 04:08:24;;;;;;;19.87;7.40;;;;;;;7.64;100.00;95730.53;5056088;28;21185;-72
2022/12/22 04:13:34;;;;;;;15.40;6.80;;;;;;;7.62;100.00;95726.44;5056091;28;20214;-72
2022/12/22 04:16:01;;;;;;;16.43;6.67;;;;;;;7.62;100.00;95719.38;5056560;28;20665;-72
2022/12/22 04:18:27;;;;;;;20.10;7.63;;;;;;;7.64;100.00;95717.44;5055899;28;20221;-71
2022/12/22 04:20:53;;;;;;;16.80;7.17;;;;;;;7.71;100.00;95720.97;5056874;28;20235;-71
2022/12/22 04:23:21;;;;;;;16.67;7.17;;;;;;;7.83;100.00;95705.69;5055710;28;20404;-72
2022/12/22 04:25:48;;;;;;;13.63;5.73;;;;;;;7.86;100.00;95677.31;5055931;28;20208;-71
2022/12/22 04:28:14;;;;;;;19.07;7.00;;;;;;;7.90;100.00;95691.69;5056639;28;20224;-71
2022/12/22 04:30:40;;;;;;;17.70;6.93;;;;;;;7.88;100.00;95686.63;5056433;28;20681;-71
2022/12/22 04:33:07;;;;;;;16.83;7.00;;;;;;;7.96;100.00;95689.19;5056024;28;20203;-72
2022/12/22 04:35:33;;;;;;;12.40;5.67;;;;;;;7.81;100.00;95682.25;5056151;28;20204;-71
2022/12/22 04:38:00;;;;;;;16.50;6.10;;;;;;;7.79;100.00;95686.88;5056251;28;20227;-72
2022/12/22 04:40:27;;;;;;;14.00;5.87;;;;;;;7.83;100.00;95668.94;5056549;28;20247;-72
2022/12/22 04:42:54;;;;;;;13.90;5.43;;;;;;;7.86;100.00;95658.94;5056706;28;20233;-72
2022/12/22 04:45:20;;;;;;;16.43;6.13;;;;;;;7.82;100.00;95652.41;5055529;28;20200;-71
2022/12/22 04:47:47;;;;;;;14.67;6.40;;;;;;;7.84;100.00;95665.34;5055949;28;20220;-72
2022/12/22 04:50:13;;;;;;;10.63;4.77;;;;;;;7.72;100.00;95670.19;5056366;28;20201;-72
2022/12/22 04:52:40;;;;;;;11.63;4.13;;;;;;;7.75;100.00;95672.47;5056255;28;20197;-71
2022/12/22 04:55:08;;;;;;;9.80;4.20;;;;;;;7.86;100.00;95663.38;5054874;28;20228;-72
2022/12/22 04:57:36;;;;;;;9.93;4.90;;;;;;;7.80;100.00;95670.13;5061233;28;20254;-72
2022/12/22 05:00:02;;;;;;;14.40;4.23;;;;;;;7.68;100.00;95666.28;5060725;28;20224;-72
2022/12/22 05:02:29;;;;;;;12.67;4.73;;;;;;;7.72;100.00;95675.41;5058776;28;20247;-72
2022/12/22 05:04:55;;;;;;;6.23;3.47;;;;;;;7.75;100.00;95669.84;5059198;28;20676;-72
2022/12/22 05:07:22;;;;;;;13.53;5.40;;;;;;;7.76;100.00;95668.84;5059969;28;20212;-72
2022/12/22 05:09:48;;;;;;;13.60;4.47;;;;;;;7.75;100.00;95669.00;5059715;28;20207;-72
2022/12/22 05:15:00;;;;;;;9.30;4.40;;;;;;;7.83;100.00;95675.03;5058506;28;20200;-72
2022/12/22 05:17:26;;;;;;;7.37;3.90;;;;;;;7.85;100.00;95674.84;5059470;28;20201;-72
2022/12/22 05:19:53;;;;;;;9.30;4.40;;;;;;;7.86;100.00;95678.09;5061338;28;20201;-72
2022/12/22 05:22:19;;;;;;;10.17;3.53;;;;;;;7.80;100.00;95670.13;5059215;28;20208;-72
2022/12/22 05:24:45;;;;;;;7.30;3.60;;;;;;;7.94;100.00;95661.50;5058837;28;20216;-72
2022/12/22 05:27:12;;;;;;;5.50;2.90;;;;;;;7.96;100.00;95670.81;5059294;28;20680;-72
2022/12/22 05:29:39;;;;;;;9.70;2.73;;;;;;;8.06;100.00;95671.41;5058930;28;20220;-72
2022/12/22 05:32:06;;;;;;;5.10;2.57;;;;;;;8.15;100.00;95662.53;5059362;28;20192;-72
2022/12/22 05:34:33;;;;;;;5.57;3.03;;;;;;;8.02;100.00;95664.09;5058385;28;20197;-72
2022/12/22 05:36:59;;;;;;;6.43;2.80;;;;;;;8.10;100.00;95661.41;5058836;28;20204;-72
2022/12/22 05:39:26;;;;;;;8.20;3.60;;;;;;;8.14;100.00;95662.72;5059133;28;20716;-72
2022/12/22 05:41:52;;;;;;;6.87;3.33;;;;;;;8.19;100.00;95652.50;5059368;28;20212;-72
2022/12/22 05:44:18;;;;;;;6.87;3.27;;;;;;;8.16;100.00;95655.47;5058321;28;20211;-72
2022/12/22 05:46:45;;;;;;;7.23;2.90;;;;;;;8.26;100.00;95653.41;5059189;28;20584;-72
2022/12/22 05:49:13;;;;;;;7.87;3.10;;;;;;;8.30;100.00;95641.56;5058732;28;20231;-72
2022/12/22 05:51:39;;;;;;;5.77;3.17;;;;;;;8.17;100.00;95657.09;5059143;28;20207;-72
2022/12/22 05:54:05;;;;;;;5.53;2.80;;;;;;;8.19;100.00;95642.00;5058231;28;20208;-72
2022/12/22 05:56:32;;;;;;;8.87;1.80;;;;;;;8.37;100.00;95651.19;5058522;28;20227;-72
2022/12/22 05:58:58;;;;;;;5.47;2.93;;;;;;;8.27;100.00;95652.44;5058655;28;20237;-72
2022/12/22 06:01:25;;;;;;;8.63;2.83;;;;;;;8.17;100.00;95657.09;5058312;28;20696;-72
2022/12/22 06:03:51;;;;;;;8.17;2.87;;;;;;;8.22;100.00;95652.13;5058438;28;20207;-71
2022/12/22 06:06:19;;;;;;;4.40;2.87;;;;;;;8.23;100.00;95656.41;5059008;28;20231;-72
2022/12/22 06:08:45;;;;;;;5.80;2.87;;;;;;;8.28;100.00;95648.81;5057560;28;20237;-72
2022/12/22 06:11:12;;;;;;;7.47;2.30;;;;;;;8.10;100.00;95650.91;5058164;28;20196;-72
2022/12/22 06:13:38;;;;;;;4.63;2.60;;;;;;;8.25;100.00;95659.66;5058703;28;20200;-71
2022/12/22 06:16:05;;;;;;;3.40;1.80;;;;;;;8.19;100.00;95649.88;5058095;28;20205;-71
2022/12/22 06:18:31;;;;;;;3.37;1.60;;;;;;;8.20;100.00;95646.28;5057883;28;20224;-71
2022/12/22 06:20:58;;;;;;;8.17;2.10;;;;;;;8.14;100.00;95641.72;5058596;28;20228;-72
2022/12/22 06:23:26;;;;;;;2.83;1.83;;;;;;;8.16;100.00;95644.97;5056134;28;20558;-71
2022/12/22 06:25:56;;;;;;;2.87;1.77;;;;;;;8.26;100.00;95640.28;5057480;28;21095;-72
2022/12/22 06:28:23;;;;;;;4.77;2.50;;;;;;;8.15;100.00;95635.47;5058218;28;20220;-72
2022/12/22 06:30:49;;;;;;;2.73;1.50;;;;;;;8.28;100.00;95633.06;5057897;28;20691;-72
2022/12/22 06:33:16;;;;;;;3.43;1.43;;;;;;;8.37;100.00;95635.44;5057988;28;20562;-72
2022/12/22 06:35:42;;;;;;;9.17;2.10;;;;;;;8.20;100.00;95630.53;5057283;28;20279;-72
2022/12/22 06:38:09;;;;;;;3.60;1.93;;;;;;;8.26;100.00;95627.16;5057910;28;20227;-72
2022/12/22 06:40:37;;;;;;;5.60;1.73;;;;;;;8.25;100.00;95612.41;5058234;28;20273;-72
2022/12/22 06:43:08;;;;;;;7.03;2.47;;;;;;;8.24;100.00;95632.59;5057864;28;20205;-71
2022/12/22 06:45:35;;;;;;;1.37;1.00;;;;;;;8.28;100.00;95623.38;5055240;28;20204;-71
2022/12/22 06:48:02;;;;;;;1.10;1.00;;;;;;;8.35;100.00;95623.47;5057498;28;20221;-71
2022/12/22 06:50:28;;;;;;;4.73;1.60;;;;;;;8.44;100.00;95625.03;5057965;28;20205;-71
2022/12/22 06:52:55;;;;;;;3.37;1.60;;;;;;;8.31;100.00;95607.28;5058078;28;20205;-71
2022/12/22 06:55:21;;;;;;;4.03;1.30;;;;;;;8.28;100.00;95614.69;5057042;28;20204;-71
2022/12/22 06:57:49;;;;;;;1.30;1.20;;;;;;;8.44;100.00;95622.41;5057438;28;20216;-71
2022/12/22 07:00:16;;;;;;;3.07;1.50;;;;;;;8.35;100.00;95621.69;5057601;28;20205;-71
2022/12/22 07:02:42;;;;;;;1.80;1.33;;;;;;;8.45;100.00;95627.47;5058248;28;20216;-71
2022/12/22 07:05:09;;;;;;;2.43;1.40;;;;;;;8.48;100.00;95630.56;5057842;28;20215;-71
2022/12/22 07:07:36;;;;;;;8.37;1.60;;;;;;;8.65;100.00;95632.03;5058062;28;20212;-71
2022/12/22 07:10:02;;;;;;;4.37;1.30;;;;;;;8.70;100.00;95631.50;5058161;28;20209;-71
2022/12/22 07:12:28;;;;;;;2.40;0.90;;;;;;;8.79;100.00;95638.31;5058371;28;20216;-71
2022/12/22 07:14:56;;;;;;;4.53;1.10;;;;;;;8.83;100.00;95635.13;5057655;28;20201;-71
2022/12/22 07:17:23;;;;;;;4.73;1.17;;;;;;;8.73;100.00;95642.47;5057654;28;20197;-71
2022/12/22 07:19:49;;;;;;;2.27;1.00;;;;;;;8.77;100.00;95641.13;5058257;28;20204;-71
2022/12/22 07:22:15;;;;;;;1.07;0.70;;;;;;;8.85;100.00;95643.66;5058095;28;20977;-71
2022/12/22 07:24:42;;;;;;;5.33;1.00;;;;;;;8.76;100.00;95644.72;5057755;28;20665;-71
2022/12/22 07:27:08;;;;;;;1.23;0.77;;;;;;;8.76;100.00;95638.66;5057530;28;20192;-71
2022/12/22 07:29:35;;;;;;;3.63;0.90;;;;;;;8.76;100.00;95646.56;5059059;28;20231;-71
2022/12/22 07:32:03;;;;;;;1.87;1.00;;;;;;;9.03;100.00;95654.59;5058403;28;20228;-71
2022/12/22 07:34:30;;;;;;;2.87;0.83;;;;;;;9.04;100.00;95656.25;5057774;28;20223;-71
2022/12/22 07:36:56;;;;;;;1.73;0.87;;;;;;;9.11;100.00;95651.88;5058862;28;20669;-71
2022/12/22 07:39:23;;;;;;;1.27;0.53;;;;;;;9.17;100.00;95649.34;5058793;28;20231;-71
2022/12/22 07:44:33;;;;;;;2.03;0.70;;;;;;;9.32;100.00;95665.91;5058520;28;20263;-71
2022/12/22 07:47:00;;;;;;;1.93;0.50;;;;;;;9.44;100.00;95668.91;5058865;28;20197;-70
2022/12/22 07:52:12;;;;;;;0.70;0.40;;;;;;;9.56;100.00;95659.53;5058737;28;20199;-71
2022/12/22 07:54:38;;;;;;;2.97;1.00;;;;;;;9.54;100.00;95669.44;5057650;28;20227;-71
2022/12/22 07:57:04;;;;;;;0.40;0.40;;;;;;;9.57;100.00;95682.22;5056562;28;20208;-72
2022/12/22 07:59:31;;;;;;;3.87;0.90;;;;;;;9.62;100.00;95669.31;5057247;28;20221;-71
2022/12/22 08:01:57;;;;;;;2.97;1.00;;;;;;;9.46;100.00;95690.59;5057386;28;20228;-72
2022/12/22 08:04:24;;;;;;;4.27;1.33;;;;;;;9.35;100.00;95688.41;5056200;28;20208;-70
2022/12/22 08:06:52;;;;;;;3.20;1.57;;;;;;;9.37;100.00;95695.13;5056621;28;20212;-72
2022/12/22 08:09:20;;;;;;;3.20;1.10;;;;;;;9.39;100.00;95685.22;5057199;28;20220;-73
2022/12/22 08:11:47;;;;;;;5.70;2.40;;;;;;;9.41;100.00;95685.84;5056589;28;20196;-73
2022/12/22 08:14:14;;;;;;;5.83;3.13;;;;;;;9.43;100.00;95688.28;5056365;28;20276;-72
2022/12/22 08:16:40;;;;;;;3.03;1.23;;;;;;;9.41;100.00;95692.94;5057295;28;20207;-72
2022/12/22 08:19:07;;;;;;;3.87;2.33;;;;;;;9.42;100.00;95684.88;5060038;28;20566;-71
2022/12/22 08:21:33;;;;;;;1.47;1.00;;;;;;;9.42;100.00;95697.19;5060169;28;20723;-71
2022/12/22 08:24:01;;;;;;;9.37;1.80;;;;;;;9.54;100.00;95687.84;5059034;28;20200;-71
2022/12/22 08:26:34;;;;;;;5.53;2.30;;;;;;;9.60;100.00;95687.91;5058248;28;20245;-71
2022/12/22 08:29:07;;;;;;;8.27;2.10;;;;;;;9.69;100.00;95686.81;5060062;28;20570;-71
2022/12/22 08:31:34;;;;;;;5.93;2.30;;;;;;;9.59;100.00;95681.03;5061181;28;20204;-71
2022/12/22 08:34:03;;;;;;;5.17;2.97;;;;;;;9.51;100.00;95680.31;5062532;28;20205;-71
2022/12/22 08:36:31;;;;;;;7.77;1.70;;;;;;;9.51;100.00;95667.16;5063201;28;20197;-71
2022/12/22 08:38:58;;;;;;;2.20;1.17;;;;;;;9.50;100.00;95671.59;5064076;28;20224;-71
2022/12/22 08:44:13;;;;;;;6.83;2.10;;;;;;;9.45;100.00;95654.75;5063042;28;20217;-71
2022/12/22 08:46:39;;;;;;;6.60;2.00;;;;;;;9.46;100.00;95659.03;5063350;28;20211;-71
2022/12/22 08:49:06;;;;;;;6.67;2.13;;;;;;;9.37;100.00;95662.75;5065009;28;20239;-71
2022/12/22 08:51:32;;;;;;;7.97;1.70;;;;;;;9.43;100.00;95669.88;5064249;28;20219;-71
2022/12/22 08:53:59;;;;;;;5.53;1.60;;;;;;;9.55;100.00;95669.25;5064715;28;20213;-71
2022/12/22 08:56:26;;;;;;;5.43;1.30;;;;;;;9.78;100.00;95667.28;5062365;28;20220;-71
2022/12/22 08:58:53;;;;;;;3.30;1.60;;;;;;;9.71;100.00;95663.75;5062579;28;20239;-71
2022/12/22 09:01:22;;;;;;;5.03;1.50;;;;;;;9.94;100.00;95670.50;5060745;28;20228;-72
2022/12/22 09:03:49;;;;;;;2.47;1.53;;;;;;;10.11;100.00;95666.66;5061626;28;20216;-71
2022/12/22 09:06:16;;;;;;;2.27;1.10;;;;;;;10.19;100.00;95663.88;5062825;28;20204;-71
2022/12/22 09:08:43;;;;;;;5.03;1.43;;;;;;;10.25;100.00;95675.50;5062446;28;20239;-71
2022/12/22 09:11:09;;;;;;;8.03;1.27;;;;;;;10.41;100.00;95686.56;5062210;28;20204;-71
2022/12/22 09:13:38;;;;;;;1.27;0.70;;;;;;;10.59;100.00;95677.22;5061947;28;20196;-71
2022/12/22 09:16:05;;;;;;;2.57;1.07;;;;;;;10.37;100.00;95685.31;5061444;28;20208;-71
2022/12/22 09:18:32;;;;;;;2.83;1.63;;;;;;;10.35;100.00;95684.72;5063427;28;20225;-71
2022/12/22 09:20:59;;;;;;;8.07;2.23;;;;;;;10.24;100.00;95697.56;5063197;28;20201;-71
2022/12/22 09:23:26;;;;;;;6.63;1.40;;;;;;;10.12;100.00;95672.72;5063458;28;20205;-71
2022/12/22 09:25:52;;;;;;;2.13;0.87;;;;;;;9.95;100.00;95679.22;5062753;28;20205;-71
2022/12/22 09:28:19;;;;;;;5.83;1.43;;;;;;;10.06;100.00;95676.94;5063269;28;20228;-71
2022/12/22 09:30:51;;;;;;;2.03;1.20;;;;;;;9.98;100.00;95658.63;5062706;28;20205;-71
2022/12/22 09:33:17;;;;;;;4.03;1.00;;;;;;;10.03;100.00;95682.59;5061645;28;20215;-72
2022/12/22 09:35:44;;;;;;;5.77;1.67;;;;;;;10.05;100.00;95680.56;5059330;28;20196;-71
2022/12/22 09:38:11;;;;;;;2.00;1.07;;;;;;;10.00;100.00;95690.81;5059347;28;20228;-71
2022/12/22 09:40:37;;;;;;;8.40;1.43;;;;;;;9.95;100.00;95681.84;5060185;28;20204;-71
2022/12/22 09:43:04;;;;;;;8.97;1.00;;;;;;;9.96;100.00;95681.69;5059996;28;20316;-71
2022/12/22 09:45:32;;;;;;;0.77;0.50;;;;;;;9.90;100.00;95665.78;5057795;28;20208;-72
2022/12/22 09:48:02;;;;;;;2.67;0.90;;;;;;;9.90;100.00;95658.72;5059083;28;20220;-72
2022/12/22 09:50:32;;;;;;;2.30;0.70;;;;;;;9.98;100.00;95640.22;5059705;28;20215;-71
2022/12/22 09:53:01;;;;;;;4.03;1.13;;;;;;;9.87;100.00;95639.84;5058333;28;20197;-72
2022/12/22 09:55:39;;;;;;;1.70;0.83;;;;;;;9.92;100.00;95619.88;5058168;28;20204;-72
2022/12/22 09:58:14;;;;;;;12.00;1.47;;;;;;;9.94;100.00;95624.94;5059744;28;20274;-72
2022/12/22 10:00:42;;;;;;;14.17;1.20;;;;;;;10.06;100.00;95616.38;5058879;28;20204;-72
2022/12/22 10:03:22;;;;;;;3.37;0.80;;;;;;;10.35;100.00;95618.88;5057946;28;20222;-72
2022/12/22 10:05:54;;;;;;;8.53;1.70;;;;;;;10.39;100.00;95636.72;5058208;28;20204;-72
2022/12/22 10:08:28;;;;;;;2.33;1.03;;;;;;;10.59;100.00;95624.53;5058753;28;20671;-72
2022/12/22 10:10:56;;;;;;;3.03;1.10;;;;;;;10.50;100.00;95640.66;5058452;28;20218;-71
2022/12/22 10:13:22;;;;;;;3.17;0.70;;;;;;;10.31;100.00;95641.34;5058528;28;20207;-72
2022/12/22 10:15:50;;;;;;;7.43;1.43;;;;;;;10.36;100.00;95646.81;5058372;28;20419;-71
2022/12/22 10:18:21;;;;;;;3.77;0.83;;;;;;;10.26;100.00;95643.72;5058546;28;20221;-72
2022/12/22 10:21:07;;;;;;;2.63;1.10;;;;;;;10.27;100.00;95636.63;5058365;28;20201;-72
2022/12/22 10:23:37;;;;;;;3.67;1.07;;;;;;;10.12;100.00;95647.22;5058351;28;20588;-72
2022/12/22 10:26:09;;;;;;;5.03;0.90;;;;;;;10.19;100.00;95650.72;5058254;28;20206;-72
2022/12/22 10:28:40;;;;;;;5.43;0.83;;;;;;;10.07;100.00;95669.84;5057974;28;20216;-72
2022/12/22 10:31:17;;;;;;;4.00;1.03;;;;;;;10.15;100.00;95661.84;5058708;28;20215;-72
2022/12/22 10:33:48;;;;;;;5.63;1.43;;;;;;;9.99;100.00;95657.63;5057564;28;20551;-72
2022/12/22 10:36:19;;;;;;;7.10;1.43;;;;;;;9.74;100.00;95653.69;5058721;28;20752;-72
2022/12/22 10:38:58;;;;;;;10.93;1.83;;;;;;;9.74;100.00;95645.78;5057336;28;20220;-72
2022/12/22 10:41:27;;;;;;;5.60;1.10;;;;;;;9.71;100.00;95637.44;5057433;28;20211;-72
2022/12/22 10:43:56;;;;;;;8.03;1.77;;;;;;;9.67;100.00;95630.94;5057208;28;20200;-72
2022/12/22 10:46:33;;;;;;;8.27;1.80;;;;;;;9.79;100.00;95637.34;5057839;28;20201;-72
2022/12/22 10:49:17;;;;;;;4.90;1.70;;;;;;;9.81;100.00;95638.78;5057957;28;20593;-72
2022/12/22 10:51:46;;;;;;;3.27;1.33;;;;;;;9.80;100.00;95636.31;5057879;28;20215;-71
2022/12/22 10:54:31;;;;;;;2.23;1.20;;;;;;;9.89;100.00;95630.78;5056709;28;20208;-70
2022/12/22 10:57:04;;;;;;;4.87;1.63;;;;;;;9.95;100.00;95624.78;5058050;28;20240;-72
2022/12/22 10:59:32;;;;;;;5.97;1.00;;;;;;;9.97;100.00;95632.50;5057571;28;20232;-72
2022/12/22 11:02:24;;;;;;;7.87;1.20;;;;;;;10.03;100.00;95639.63;5057232;28;20252;-72
2022/12/22 11:04:54;;;;;;;6.83;1.70;;;;;;;10.12;100.00;95620.91;5056733;28;20263;-72
2022/12/22 11:07:21;;;;;;;5.13;1.17;;;;;;;10.13;100.00;95621.72;5057769;28;20212;-72
2022/12/22 11:09:47;;;;;;;3.23;1.10;;;;;;;10.19;100.00;95621.78;5057209;28;21098;-72
2022/12/22 11:12:22;;;;;;;2.57;0.83;;;;;;;10.27;100.00;95634.78;5057549;28;20192;-72
2022/12/22 11:14:57;;;;;;;7.77;1.10;;;;;;;10.37;100.00;95630.03;5057060;28;20226;-72
2022/12/22 11:17:34;;;;;;;2.80;1.10;;;;;;;10.39;100.00;95644.63;5056957;28;20248;-72
2022/12/22 11:20:27;;;;;;;3.93;1.33;;;;;;;10.48;100.00;95626.88;5057919;28;20713;-72
2022/12/22 11:23:00;;;;;;;5.63;1.27;;;;;;;10.42;100.00;95627.63;5057222;28;20247;-72
2022/12/22 11:25:36;;;;;;;1.40;0.80;;;;;;;10.36;100.00;95623.13;5056132;28;20304;-72
2022/12/22 11:28:16;;;;;;;5.60;1.10;;;;;;;10.46;100.00;95619.19;5057299;28;20231;-72
2022/12/22 11:30:55;;;;;;;5.27;1.83;;;;;;;10.54;100.00;95618.22;5056841;28;20204;-73
2022/12/22 11:33:34;;;;;;;0.80;0.63;;;;;;;10.59;100.00;95610.53;5056528;28;20193;-73
2022/12/22 11:36:04;;;;;;;1.57;1.03;;;;;;;10.55;100.00;95614.56;5057426;28;20199;-72
2022/12/22 11:38:46;;;;;;;2.97;1.10;;;;;;;10.60;100.00;95625.34;5058177;28;20429;-72
2022/12/22 11:41:29;;;;;;;10.07;1.30;;;;;;;10.65;100.00;95626.38;5057491;28;20204;-72
2022/12/22 11:44:18;;;;;;;1.53;0.70;;;;;;;10.77;100.00;95611.69;5058948;28;20209;-71
2022/12/22 11:46:52;;;;;;;3.07;1.00;;;;;;;10.73;100.00;95618.38;5057617;28;20200;-71
2022/12/22 11:49:57;;;;;;;6.90;1.10;;;;;;;10.84;100.00;95612.53;5056780;28;20228;-71
2022/12/22 11:52:45;;;;;;;7.27;1.33;;;;;;;10.74;100.00;95627.06;5057670;28;20251;-70
2022/12/22 11:55:20;;;;;;;5.37;1.33;;;;;;;10.62;100.00;95628.63;5056554;28;20212;-70
2022/12/22 11:57:58;;;;;;;8.60;1.10;;;;;;;10.68;100.00;95627.81;5057228;28;20251;-70
2022/12/22 12:00:25;;;;;;;3.80;1.00;;;;;;;10.45;100.00;95648.31;5058338;28;20223;-70
2022/12/22 12:03:15;;;;;;;5.67;1.37;;;;;;;10.51;100.00;95637.88;5058508;28;20242;-70
2022/12/22 12:06:03;;;;;;;5.70;2.13;;;;;;;10.50;100.00;95661.72;5057511;28;20208;-70
2022/12/22 12:08:41;;;;;;;4.50;1.43;;;;;;;10.46;100.00;95642.06;5061566;28;20242;-72
2022/12/22 12:11:17;;;;;;;10.17;1.50;;;;;;;10.45;100.00;95643.03;5063192;28;20214;-72
2022/12/22 12:13:53;;;;;;;4.17;1.67;;;;;;;10.61;100.00;95648.06;5061719;28;20219;-72
2022/12/22 12:16:29;;;;;;;6.90;1.43;;;;;;;10.50;100.00;95640.66;5063435;28;20204;-72
2022/12/22 12:19:11;;;;;;;7.40;1.47;;;;;;;10.57;100.00;95633.63;5063591;28;20594;-72
2022/12/22 12:21:45;;;;;;;6.90;2.57;;;;;;;10.63;100.00;95648.69;5062839;28;20207;-72
2022/12/22 12:24:39;;;;;;;4.30;1.27;;;;;;;10.66;100.00;95643.84;5062691;28;20227;-72
2022/12/22 12:27:13;;;;;;;7.20;1.13;;;;;;;10.71;100.00;95653.81;5063168;28;20207;-72
2022/12/22 12:29:46;;;;;;;7.40;1.67;;;;;;;10.76;100.00;95657.50;5063269;28;20239;-72
2022/12/22 12:32:17;;;;;;;7.13;1.43;;;;;;;10.85;100.00;95666.06;5062606;28;20388;-72
2022/12/22 12:34:49;;;;;;;3.23;1.40;;;;;;;10.87;100.00;95650.88;5061707;28;20366;-72
2022/12/22 12:37:20;;;;;;;5.10;1.63;;;;;;;10.69;100.00;95658.44;5062763;28;20200;-72
2022/12/22 12:39:59;;;;;;;2.97;1.17;;;;;;;10.85;100.00;95655.53;5063017;28;20256;-72
2022/12/22 12:42:32;;;;;;;8.20;1.77;;;;;;;10.88;100.00;95666.50;5061920;28;20235;-72
2022/12/22 12:44:59;;;;;;;6.40;1.37;;;;;;;10.71;100.00;95659.09;5061498;28;20588;-70
2022/12/22 12:47:28;;;;;;;1.73;0.67;;;;;;;10.91;100.00;95660.00;5064157;28;20218;-72
2022/12/22 12:50:05;;;;;;;3.60;1.60;;;;;;;10.96;100.00;95669.00;5063068;28;20211;-72
2022/12/22 12:53:15;;;;;;;7.90;1.77;;;;;;;11.15;100.00;95668.28;5062254;28;20200;-72
2022/12/22 12:56:01;;;;;;;2.40;1.10;;;;;;;10.98;100.00;95659.88;5062971;28;20277;-71
2022/12/22 12:58:50;;;;;;;3.80;1.13;;;;;;;11.03;100.00;95668.00;5062756;28;20228;-71
2022/12/22 13:01:54;;;;;;;3.00;1.00;;;;;;;11.15;100.00;95674.38;5062761;28;20200;-72
2022/12/22 13:05:10;;;;;;;4.43;1.30;;;;;;;11.19;100.00;95662.44;5061653;28;20347;-72
2022/12/22 13:08:19;;;;;;;8.13;1.33;;;;;;;11.27;99.36;95669.38;5044205;28;20294;-71
2022/12/22 13:10:49;;;;;;;5.37;1.33;;;;;;;11.20;98.89;95665.88;5062832;28;20215;-71
2022/12/22 13:13:45;;;;;;;6.40;1.50;;;;;;;11.32;98.61;95674.91;5060935;28;20207;-71
2022/12/22 13:16:23;;;;;;;6.07;1.10;;;;;;;11.29;98.13;95670.81;5056510;28;20219;-71
2022/12/22 13:18:50;;;;;;;6.20;1.30;;;;;;;11.22;97.79;95695.53;5061877;28;20269;-71
2022/12/22 13:21:21;;;;;;;11.53;1.97;;;;;;;11.32;97.69;95680.97;5059134;28;20616;-71
2022/12/22 13:24:01;;;;;;;7.97;2.03;;;;;;;11.37;97.33;95683.84;5058403;28;20295;-71
2022/12/22 13:26:33;;;;;;;4.87;1.43;;;;;;;11.38;97.47;95688.13;5059801;28;20203;-72
2022/12/22 13:29:07;;;;;;;8.80;2.17;;;;;;;11.41;97.52;95694.81;5059912;28;20228;-71
2022/12/22 13:31:40;;;;;;;2.80;0.60;;;;;;;11.41;97.43;95690.34;5059371;28;20204;-71
2022/12/22 13:34:29;;;;;;;1.20;0.83;;;;;;;11.44;97.68;95700.50;5058750;28;20593;-72
2022/12/22 13:36:58;;;;;;;4.47;1.17;;;;;;;11.51;97.68;95692.66;5059184;28;21199;-72
2022/12/22 13:39:25;;;;;;;5.30;1.07;;;;;;;11.51;96.34;95698.75;5058644;28;20235;-72
2022/12/22 13:41:52;;;;;;;5.63;1.00;;;;;;;11.61;95.58;95700.03;5059876;28;20662;-70
2022/12/22 13:44:25;;;;;;;4.00;1.57;;;;;;;11.64;95.11;95691.72;5058133;28;20229;-70
2022/12/22 13:46:53;;;;;;;5.60;1.30;;;;;;;11.51;95.75;95704.03;5059241;28;20215;-70
2022/12/22 13:49:21;;;;;;;2.57;1.37;;;;;;;11.56;95.72;95714.81;5057283;28;20381;-70
2022/12/22 13:51:48;;;;;;;6.27;1.03;;;;;;;11.52;95.80;95718.88;5059332;28;20201;-70
2022/12/22 13:54:19;;;;;;;3.33;1.10;;;;;;;11.64;95.81;95712.03;5057545;28;20197;-72
2022/12/22 13:56:49;;;;;;;2.93;1.10;;;;;;;11.55;96.09;95719.28;5059211;28;20673;-71
2022/12/22 13:59:28;;;;;;;7.03;1.20;;;;;;;11.55;96.47;95718.47;5058398;28;21315;-72
2022/12/22 14:01:58;;;;;;;5.13;1.20;;;;;;;11.46;97.21;95724.09;5058676;28;20200;-71
2022/12/22 14:04:26;;;;;;;6.03;1.07;;;;;;;11.37;96.82;95725.25;5057003;28;20252;-69
2022/12/22 14:06:54;;;;;;;7.57;1.80;;;;;;;11.37;96.70;95736.59;5059118;28;20212;-70
2022/12/22 14:09:23;;;;;;;7.53;1.10;;;;;;;11.31;96.82;95742.63;5058338;28;20278;-69
2022/12/22 14:11:52;;;;;;;3.87;1.03;;;;;;;11.40;96.58;95752.03;5059261;28;20201;-72
2022/12/22 14:14:24;;;;;;;9.17;1.10;;;;;;;11.44;96.93;95741.91;5057946;28;20220;-71
2022/12/22 14:16:53;;;;;;;11.20;1.70;;;;;;;11.30;97.16;95748.09;5058489;28;20201;-71
2022/12/22 14:19:21;;;;;;;3.60;1.70;;;;;;;11.31;96.56;95753.19;5058624;28;20240;-71
2022/12/22 14:21:51;;;;;;;5.13;1.87;;;;;;;11.36;96.60;95760.53;5058736;28;20200;-71
2022/12/22 14:24:23;;;;;;;8.57;2.13;;;;;;;11.37;97.23;95755.06;5057348;28;20240;-72
2022/12/22 14:26:52;;;;;;;4.57;1.57;;;;;;;11.27;97.14;95756.41;5058465;28;20200;-71
2022/12/22 14:29:25;;;;;;;4.87;1.50;;;;;;;11.27;97.92;95761.69;5058570;28;20228;-70
2022/12/22 14:31:53;;;;;;;4.20;1.70;;;;;;;11.30;96.69;95758.66;5057466;28;20227;-70
2022/12/22 14:34:28;;;;;;;7.57;2.23;;;;;;;11.32;96.62;95764.56;5057616;28;21081;-69
2022/12/22 14:36:55;;;;;;;3.67;1.57;;;;;;;11.25;97.13;95763.69;5059287;28;20211;-70
2022/12/22 14:39:24;;;;;;;6.60;1.70;;;;;;;11.27;95.91;95766.97;5058224;28;20236;-69
2022/12/22 14:41:54;;;;;;;6.17;2.20;;;;;;;11.40;95.54;95767.06;5058452;28;20201;-70
2022/12/22 14:44:25;;;;;;;9.60;2.93;;;;;;;11.39;95.54;95766.25;5057203;28;20228;-70
2022/12/22 14:47:13;;;;;;;12.67;2.83;;;;;;;11.39;96.43;95768.88;5057407;28;20201;-69
2022/12/22 14:49:44;;;;;;;10.27;2.33;;;;;;;11.41;95.64;95774.78;5057482;28;20221;-71
2022/12/22 14:52:19;;;;;;;7.87;1.60;;;;;;;11.32;96.13;95769.84;5058232;28;20546;-72
2022/12/22 14:54:48;;;;;;;12.97;2.23;;;;;;;11.25;96.28;95769.81;5057536;28;20204;-72
2022/12/22 14:57:18;;;;;;;13.47;2.07;;;;;;;11.30;95.33;95777.13;5057855;28;20215;-71
2022/12/22 15:00:00;;;;;;;13.73;2.50;;;;;;;11.38;95.58;95774.34;5057797;28;20220;-71
2022/12/22 15:02:30;;;;;;;6.23;1.77;;;;;;;11.23;95.56;95763.91;5056435;28;20220;-72
2022/12/22 15:05:14;;;;;;;4.47;1.60;;;;;;;11.31;95.59;95774.28;5055733;28;21007;-71
2022/12/22 15:07:46;;;;;;;10.83;2.00;;;;;;;11.30;95.81;95777.97;5058316;28;20208;-72
2022/12/22 15:10:13;;;;;;;11.07;2.63;;;;;;;11.12;95.92;95772.31;5057878;28;20211;-72
2022/12/22 15:12:39;;;;;;;9.73;2.40;;;;;;;11.12;95.94;95774.94;5057186;28;20216;-71
2022/12/22 15:15:18;;;;;;;12.73;2.80;;;;;;;11.19;95.98;95783.75;5056403;28;20193;-71
2022/12/22 15:17:47;;;;;;;11.63;1.93;;;;;;;11.09;95.90;95785.91;5057372;28;20236;-72
2022/12/22 15:20:18;;;;;;;8.57;1.30;;;;;;;11.06;95.62;95790.72;5057567;28;20208;-71
2022/12/22 15:22:45;;;;;;;4.93;1.97;;;;;;;11.07;95.44;95798.47;5057205;28;20216;-72
2022/12/22 15:25:14;;;;;;;3.80;1.20;;;;;;;11.11;95.50;95806.78;5056374;28;20220;-71
2022/12/22 15:27:40;;;;;;;13.43;2.00;;;;;;;11.04;95.54;95809.38;5057569;28;20688;-71
2022/12/22 15:30:08;;;;;;;11.47;2.10;;;;;;;11.07;95.49;95814.28;5056267;28;20196;-71